Share

Grand Forks Air Force Base, ND

Grand Forks International (KGFK) Alt. 843 ft | 47.95 °N, 97.18 °W | Change Station
Avis météorologiques actifs: Flood WarningWind Advisory

Current weather conditions updated 55 minutes ago

Overcast
Couvert
47 ° F
Paraît 47 ° F
N
24
Vent Variable Vent de SE
Gusts 39 mph
Lever du soleil 6:33 AM
Coucher du soleil 8:23 PM
Lune Lune gibbeuse décroissante

Demain il est prévu de faire bien plus chaud qu’aujourd’hui.

Pression 30.01 pouce
Visibilité 10.0 Miles terrestres
Nuages Couvert 6500 ft
Point de rosée 28 ° F
Humidité 48%
Précipitations 0.00 pouce
Profondeur de la couche neigeuse Non disponible.
UV 0 sur 16
Pollen 9.00 sur 12
Qualité de l'air Non disponible.
Flu Activity Sporadic
METAR KGFK 190053Z 13021G34KT 10SM OVC065 08/M02 A2998 RMK AO2 PK WND 13034/0045 SLP161 T00831022

More Conditions Fewer Conditions

Pression 30.01 pouce
Visibilité 10.0 Miles terrestres
Nuages Couvert 6500 ft
Point de rosée 28 ° F
Humidité 48%
Précipitations 0.00 pouce
Profondeur de la couche neigeuse Non disponible.
UV 0 sur 16
Pollen 9.00 sur 12
Qualité de l'air Non disponible.
Flu Activity Sporadic
METAR KGFK 190053Z 13021G34KT 10SM OVC065 08/M02 A2998 RMK AO2 PK WND 13034/0045 SLP161 T00831022

More Conditions Fewer Conditions

10-Day Weather Forecast

Almanac

Astronomie

Apr. 18, 2014 Lever Coucher
Temps réel 06:33 CDT 20:23 CDT
Crépuscule civil 06:00 CDT 20:56 CDT
Crépuscule nautique 05:20 CDT 21:37 CDT
Crépuscule astronomique 04:35 CDT 22:21 CDT
Lune Pas de lever de lune 08:46 CDT (4/18)
Durée de lumière visible 14h 55m
Longueur du jour
13h 49m
Tomorrow will be 3m 18s longer.
Lune gibbeuse décroissante, 84% of the Moon is Illuminated
Aujourd'hui
Lune gibbeuse décroissante
avr 22
Dernier quartier
avr 29
Nouveau
mai 6
Premier quartier
mai 14
Pleine lune

Extrêmes aujourd'hui

State Highs State Lows

Community

  • Cloudy spring view
    Cloudy spring view
  • Old barn
    Old barn
  • What's for Lunch?
    What's for Lunch?
  • SUNRISE THROUGH THE TREES.
    SUNRISE THROUGH THE TREES.
  • Dog Wood Blossoms
    Dog Wood Blossoms

WunderPhotos

Upload Photos

1,702,570 Photos téléchargées !

WunderBlogs® & News

Nearby

Épaisseur de neige

Station Depth Altitude
Pas de nouvelles chutes de neige

Températures des eaux côtières

Lieu Température
Aucun rapport de station

Activité sismique

Ville Distance Mag. Time & Date
No recent earthquake activity has been reported nearby.
Minimum magnitude displayed is 2.5.

Stations météo à proximité

Emplacement de la station Température Refroidissement éolien Point de rosée Humidité Vent Precip. Alt. Mise à jour Type
Grand Forks, ND 50.0 ° F 45 ° F 28 ° F 43% Nord  à  15.2 mph 0.00 pouce / hr 827 ft 5:36 PM CDT Rapid Fire (temps réel)

Show More Stations Show Fewer Stations

What do you think?

We're not finished. Please let us know what you like, what you don't like, and what you are still missing.